Time;durP1;ratioP1;P1;durP2;ratioP2;P2;SDS_P1;SDS_P2;PMS_P1;PMS_P2;Temp;Humidity;BMP_temperature;BMP_pressure;BME280_temperature;BME280_humidity;BME280_pressure;Samples;Min_cycle;Max_cycle;Signal;HPM_P1;HPM_P2
2023/03/19 00:02:20;;;;;;;5.70;5.10;;;11.00;99.90;;;;;;5034109;28;20815;-63
2023/03/19 00:04:47;;;;;;;7.10;6.50;;;11.00;99.90;;;;;;5035769;28;20500;-63
2023/03/19 00:07:16;;;;;;;6.40;5.73;;;11.00;99.90;;;;;;5035929;28;20460;-63
2023/03/19 00:09:43;;;;;;;6.97;5.50;;;11.00;99.90;;;;;;5035729;28;20434;-65
2023/03/19 00:12:10;;;;;;;6.43;5.47;;;10.90;99.90;;;;;;5035012;28;20433;-64
2023/03/19 00:14:37;;;;;;;6.63;5.97;;;10.90;99.90;;;;;;5033440;28;20874;-63
2023/03/19 00:17:04;;;;;;;7.30;6.50;;;10.90;99.90;;;;;;5033367;28;20476;-64
2023/03/19 00:19:31;;;;;;;7.67;6.80;;;10.90;99.90;;;;;;5033277;28;20445;-63
2023/03/19 00:21:57;;;;;;;5.53;5.03;;;10.80;99.90;;;;;;5032907;28;20441;-63
2023/03/19 00:24:25;;;;;;;6.43;5.57;;;10.80;99.90;;;;;;5033225;28;20954;-64
2023/03/19 00:26:52;;;;;;;7.43;6.73;;;10.80;99.90;;;;;;5034841;28;20433;-64
2023/03/19 00:29:19;;;;;;;6.80;6.10;;;10.80;99.90;;;;;;5036913;28;20445;-64
2023/03/19 00:31:46;;;;;;;6.57;5.93;;;10.70;99.90;;;;;;5037098;28;20539;-63
2023/03/19 00:34:13;;;;;;;7.20;6.47;;;10.70;99.90;;;;;;5036577;28;20444;-63
2023/03/19 00:36:40;;;;;;;7.20;6.20;;;10.70;99.90;;;;;;5036911;28;20484;-64
2023/03/19 00:39:07;;;;;;;7.87;6.60;;;10.70;99.90;;;;;;5037097;28;20460;-63
2023/03/19 00:41:35;;;;;;;7.27;6.60;;;10.60;99.90;;;;;;5037042;28;20448;-63
2023/03/19 00:44:02;;;;;;;8.70;6.90;;;10.60;99.90;;;;;;5036859;28;20447;-63
2023/03/19 00:46:29;;;;;;;8.13;6.77;;;10.50;99.90;;;;;;5036840;28;20463;-63
2023/03/19 00:48:57;;;;;;;10.55;7.60;;;10.50;99.90;;;;;;5036733;28;20445;-63
2023/03/19 00:51:25;;;;;;;9.93;7.47;;;10.50;99.90;;;;;;5036553;28;20209;-65
2023/03/19 00:53:52;;;;;;;7.80;7.00;;;10.40;99.90;;;;;;5036638;28;20528;-63
2023/03/19 00:56:20;;;;;;;9.33;7.90;;;10.40;99.90;;;;;;5036406;28;20892;-63
2023/03/19 00:58:48;;;;;;;8.53;7.20;;;10.30;99.90;;;;;;5036131;28;20766;-64
2023/03/19 01:01:17;;;;;;;7.93;7.07;;;10.20;99.90;;;;;;5036446;28;20445;-63
2023/03/19 01:03:44;;;;;;;8.50;7.10;;;10.20;99.90;;;;;;5036429;28;20471;-63
2023/03/19 01:06:12;;;;;;;9.60;8.10;;;10.10;99.90;;;;;;5036190;28;20269;-65
2023/03/19 01:08:39;;;;;;;9.82;8.48;;;10.00;99.90;;;;;;5036338;28;20452;-63
2023/03/19 01:11:08;;;;;;;9.80;8.85;;;9.90;99.90;;;;;;5036395;28;20257;-63
2023/03/19 01:13:34;;;;;;;11.88;8.52;;;9.90;99.90;;;;;;5035893;28;20691;-63
2023/03/19 01:16:03;;;;;;;9.47;8.10;;;9.80;99.90;;;;;;5036021;28;20707;-63
2023/03/19 01:18:30;;;;;;;9.80;8.25;;;9.80;99.90;;;;;;5036018;28;20452;-64
2023/03/19 01:20:57;;;;;;;15.38;8.80;;;9.70;99.90;;;;;;5036106;28;20202;-63
2023/03/19 01:23:24;;;;;;;10.18;9.27;;;9.70;99.90;;;;;;5036022;28;20211;-63
2023/03/19 01:25:51;;;;;;;9.80;8.35;;;9.60;99.90;;;;;;5035499;28;20241;-64
2023/03/19 01:28:18;;;;;;;8.52;7.63;;;9.60;99.90;;;;;;5035473;28;20206;-63
2023/03/19 01:30:44;;;;;;;10.63;8.73;;;9.50;99.90;;;;;;5035990;28;20203;-64
2023/03/19 01:33:12;;;;;;;10.90;8.52;;;9.50;99.90;;;;;;5036038;28;20206;-65
2023/03/19 01:35:40;;;;;;;9.95;8.10;;;9.40;99.90;;;;;;5035162;28;20738;-63
2023/03/19 01:38:06;;;;;;;10.10;8.95;;;9.40;99.90;;;;;;5034933;28;20285;-65
2023/03/19 01:40:33;;;;;;;10.35;8.95;;;9.40;99.90;;;;;;5035475;28;20671;-64
2023/03/19 01:43:14;;;;;;;8.95;8.00;;;9.30;99.90;;;;;;5035299;28;20205;-64
2023/03/19 01:45:43;;;;;;;11.00;9.15;;;9.30;99.90;;;;;;5035601;28;20298;-63
2023/03/19 01:48:20;;;;;;;12.45;10.15;;;9.30;99.90;;;;;;5035747;28;20206;-64
2023/03/19 01:50:52;;;;;;;10.00;8.45;;;9.30;99.90;;;;;;5035635;28;20197;-64
2023/03/19 01:53:22;;;;;;;12.27;9.60;;;9.20;99.90;;;;;;5035601;28;20277;-63
2023/03/19 01:55:50;;;;;;;10.88;9.20;;;9.20;99.90;;;;;;5035814;28;20219;-64
2023/03/19 01:58:17;;;;;;;12.93;11.10;;;9.20;99.90;;;;;;5035016;28;20198;-63
2023/03/19 02:00:45;;;;;;;10.32;9.32;;;9.20;99.90;;;;;;5035245;28;20579;-63
2023/03/19 02:03:13;;;;;;;11.90;9.40;;;9.10;99.90;;;;;;5035222;28;20568;-64
2023/03/19 02:05:42;;;;;;;13.13;11.50;;;9.10;99.90;;;;;;5035023;28;20222;-65
2023/03/19 02:08:13;;;;;;;11.05;9.95;;;9.10;99.90;;;;;;5035611;28;20577;-65
2023/03/19 02:10:42;;;;;;;10.80;9.70;;;9.10;99.90;;;;;;5035127;28;20218;-64
2023/03/19 02:13:09;;;;;;;11.15;9.40;;;9.00;99.90;;;;;;5035050;28;20211;-63
2023/03/19 02:15:35;;;;;;;10.73;9.13;;;9.00;99.90;;;;;;5034898;28;20222;-64
2023/03/19 02:18:02;;;;;;;11.43;9.65;;;9.00;99.90;;;;;;5034845;28;20605;-63
2023/03/19 02:20:34;;;;;;;9.77;8.70;;;8.90;99.90;;;;;;5034909;28;20197;-63
2023/03/19 02:23:11;;;;;;;13.02;10.65;;;8.90;99.90;;;;;;5034885;28;20664;-63
2023/03/19 02:25:43;;;;;;;13.40;10.93;;;8.90;99.90;;;;;;5034608;28;20754;-62
2023/03/19 02:28:12;;;;;;;12.70;10.75;;;8.90;99.90;;;;;;5035043;28;20202;-62
2023/03/19 02:30:39;;;;;;;13.55;11.07;;;8.90;99.90;;;;;;5035273;28;20205;-63
2023/03/19 02:33:06;;;;;;;12.48;10.40;;;8.80;99.90;;;;;;5035075;28;20643;-63
2023/03/19 02:35:35;;;;;;;15.93;11.55;;;8.80;99.90;;;;;;5035465;28;20226;-62
2023/03/19 02:38:04;;;;;;;12.13;10.55;;;8.80;99.90;;;;;;5034947;28;20222;-62
2023/03/19 02:40:36;;;;;;;13.60;12.18;;;8.80;99.90;;;;;;5034847;28;20206;-63
2023/03/19 02:43:03;;;;;;;12.68;11.38;;;8.80;99.90;;;;;;5035159;28;20213;-62
2023/03/19 02:45:32;;;;;;;12.10;10.90;;;8.80;99.90;;;;;;5034663;28;20233;-63
2023/03/19 02:47:59;;;;;;;13.52;11.02;;;8.80;99.90;;;;;;5034968;28;20206;-62
2023/03/19 02:50:26;;;;;;;13.18;11.00;;;8.70;99.90;;;;;;5033647;28;20206;-62
2023/03/19 02:52:53;;;;;;;13.45;11.68;;;8.70;99.90;;;;;;5034744;28;20206;-62
2023/03/19 02:55:21;;;;;;;17.27;10.65;;;8.70;99.90;;;;;;5034625;28;20260;-63
2023/03/19 02:57:48;;;;;;;11.55;10.32;;;8.70;99.90;;;;;;5034463;28;20218;-63
2023/03/19 03:00:17;;;;;;;15.75;11.50;;;8.70;99.90;;;;;;5034499;28;20671;-63
2023/03/19 03:02:45;;;;;;;13.93;11.73;;;8.70;99.90;;;;;;5034284;28;20198;-64
2023/03/19 03:05:13;;;;;;;12.38;11.07;;;8.70;99.90;;;;;;5034045;28;20594;-63
2023/03/19 03:07:42;;;;;;;13.80;11.45;;;8.70;99.90;;;;;;5034302;28;20199;-64
2023/03/19 03:10:09;;;;;;;12.88;10.77;;;8.70;99.90;;;;;;5034001;28;20256;-63
2023/03/19 03:12:37;;;;;;;12.10;10.50;;;8.70;99.90;;;;;;5034053;28;20209;-63
2023/03/19 03:15:05;;;;;;;13.68;10.48;;;8.60;99.90;;;;;;5033937;28;20254;-63
2023/03/19 03:17:31;;;;;;;14.60;12.27;;;8.60;99.90;;;;;;5034043;28;20305;-64
2023/03/19 03:20:00;;;;;;;11.95;10.65;;;8.70;99.90;;;;;;5033522;28;20703;-63
2023/03/19 03:22:26;;;;;;;11.35;10.25;;;8.60;99.90;;;;;;5034014;28;20206;-64
2023/03/19 03:24:53;;;;;;;13.88;11.50;;;8.60;99.90;;;;;;5033664;28;20292;-63
2023/03/19 03:27:20;;;;;;;12.27;10.95;;;8.60;99.90;;;;;;5033529;28;20644;-64
2023/03/19 03:29:47;;;;;;;12.57;10.02;;;8.60;99.90;;;;;;5033484;28;20794;-63
2023/03/19 03:32:14;;;;;;;12.43;10.13;;;8.60;99.90;;;;;;5033661;28;20206;-65
2023/03/19 03:34:41;;;;;;;9.82;8.93;;;8.50;99.90;;;;;;5033680;28;20252;-65
2023/03/19 03:37:10;;;;;;;12.43;11.13;;;8.50;99.90;;;;;;5033254;28;20703;-64
2023/03/19 03:39:36;;;;;;;15.40;11.02;;;8.50;99.90;;;;;;5033736;28;20198;-64
2023/03/19 03:42:03;;;;;;;11.70;10.52;;;8.50;99.90;;;;;;5033210;28;20680;-64
2023/03/19 03:44:30;;;;;;;12.50;10.77;;;8.50;99.90;;;;;;5033501;28;20202;-65
2023/03/19 03:46:57;;;;;;;13.68;10.40;;;8.50;99.90;;;;;;5033730;28;20198;-64
2023/03/19 03:49:24;;;;;;;13.50;11.32;;;8.50;99.90;;;;;;5033501;28;20584;-64
2023/03/19 03:51:51;;;;;;;12.50;10.75;;;8.50;99.90;;;;;;5033379;28;20260;-65
2023/03/19 03:54:20;;;;;;;11.60;9.65;;;8.50;99.90;;;;;;5033025;28;20681;-64
2023/03/19 03:56:48;;;;;;;12.65;11.02;;;8.50;99.90;;;;;;5033187;28;20221;-64
2023/03/19 03:59:16;;;;;;;12.00;10.23;;;8.40;99.90;;;;;;5033362;28;20206;-64
2023/03/19 04:01:42;;;;;;;11.95;10.70;;;8.40;99.90;;;;;;5033161;28;20202;-64
2023/03/19 04:04:09;;;;;;;13.98;12.02;;;8.40;99.90;;;;;;5033463;28;20202;-64
2023/03/19 04:06:36;;;;;;;12.70;11.05;;;8.40;99.90;;;;;;5032951;28;20719;-64
2023/03/19 04:11:23;;;;;;;12.10;10.43;;;8.40;99.90;;;;;;5091546;27;21062;-62
2023/03/19 04:13:50;;;;;;;12.73;10.70;;;8.40;99.90;;;;;;5090871;28;20208;-64
2023/03/19 04:16:17;;;;;;;11.02;9.93;;;8.40;99.90;;;;;;5090791;28;20221;-62
2023/03/19 04:18:44;;;;;;;10.13;9.23;;;8.40;99.90;;;;;;5091317;28;20211;-62
2023/03/19 04:21:11;;;;;;;10.32;9.32;;;8.40;99.90;;;;;;5090502;28;20207;-62
2023/03/19 04:23:38;;;;;;;13.38;10.85;;;8.40;99.90;;;;;;5090486;28;20207;-64
2023/03/19 04:26:06;;;;;;;10.95;9.85;;;8.30;99.90;;;;;;5079621;22;20233;-61
2023/03/19 04:28:35;;;;;;;10.93;9.25;;;8.40;99.90;;;;;;5051017;28;20573;-60
2023/03/19 04:31:03;;;;;;;13.68;10.00;;;8.40;99.90;;;;;;5050916;28;20224;-61
2023/03/19 04:33:31;;;;;;;11.95;10.27;;;8.40;99.90;;;;;;5051359;28;20655;-60
2023/03/19 04:35:59;;;;;;;12.95;10.20;;;8.40;99.90;;;;;;5051032;28;20226;-61
2023/03/19 04:38:26;;;;;;;13.20;10.75;;;8.40;99.90;;;;;;5051151;28;20209;-61
2023/03/19 04:40:53;;;;;;;12.82;11.00;;;8.40;99.90;;;;;;5050873;28;20205;-60
2023/03/19 04:43:20;;;;;;;11.23;10.02;;;8.40;99.90;;;;;;5050936;28;20198;-60
2023/03/19 04:45:49;;;;;;;11.32;10.23;;;8.50;99.90;;;;;;5050678;28;20598;-61
2023/03/19 04:48:17;;;;;;;11.55;10.25;;;8.50;99.90;;;;;;5050229;28;20209;-61
2023/03/19 04:50:44;;;;;;;11.35;10.23;;;8.50;99.90;;;;;;5050222;28;20214;-60
2023/03/19 04:53:11;;;;;;;12.57;11.27;;;8.50;99.90;;;;;;5050009;28;20293;-60
2023/03/19 04:55:38;;;;;;;11.40;9.95;;;8.60;99.90;;;;;;5050121;28;20221;-61
2023/03/19 04:58:05;;;;;;;11.95;10.32;;;8.60;99.90;;;;;;5049470;28;20213;-60
2023/03/19 05:00:32;;;;;;;11.23;10.07;;;8.60;99.90;;;;;;5049529;28;20201;-61
2023/03/19 05:03:00;;;;;;;12.95;11.02;;;8.70;99.90;;;;;;5065177;28;20202;-61
2023/03/19 05:05:27;;;;;;;13.02;10.35;;;8.70;99.90;;;;;;5050085;28;20273;-61
2023/03/19 05:07:54;;;;;;;11.15;9.93;;;8.70;99.90;;;;;;5049492;28;20202;-60
2023/03/19 05:10:20;;;;;;;11.98;10.57;;;8.70;99.90;;;;;;5049217;28;20218;-60
2023/03/19 05:12:47;;;;;;;11.55;10.35;;;8.70;99.90;;;;;;5050377;28;20233;-59
2023/03/19 05:15:15;;;;;;;13.50;10.68;;;8.70;99.90;;;;;;5050360;28;20222;-61
2023/03/19 05:17:42;;;;;;;10.55;9.50;;;8.80;99.90;;;;;;5049308;28;20201;-60
2023/03/19 05:20:14;;;;;;;11.35;9.27;;;8.80;99.90;;;;;;5049320;28;20204;-62
2023/03/19 05:22:41;;;;;;;12.05;9.23;;;8.90;99.90;;;;;;5036584;28;20564;-61
2023/03/19 05:25:08;;;;;;;13.65;9.65;;;8.90;99.90;;;;;;5036153;28;20230;-61
2023/03/19 05:27:35;;;;;;;12.20;9.30;;;8.90;99.90;;;;;;5036862;28;20206;-60
2023/03/19 05:30:02;;;;;;;9.65;8.65;;;8.90;99.90;;;;;;5036302;28;20225;-61
2023/03/19 05:32:29;;;;;;;10.65;9.48;;;9.00;99.90;;;;;;5035951;28;20207;-60
2023/03/19 05:34:56;;;;;;;12.23;10.10;;;9.00;99.90;;;;;;5036062;28;20248;-61
2023/03/19 05:37:24;;;;;;;10.10;8.60;;;9.00;99.90;;;;;;5035837;28;20208;-62
2023/03/19 05:39:50;;;;;;;10.15;9.15;;;9.10;99.90;;;;;;5035808;28;20202;-60
2023/03/19 05:42:17;;;;;;;10.38;9.10;;;9.20;99.90;;;;;;5035845;28;20214;-60
2023/03/19 05:44:44;;;;;;;8.52;7.70;;;9.20;99.90;;;;;;5035879;28;20233;-59
2023/03/19 05:47:12;;;;;;;10.25;9.25;;;9.30;99.90;;;;;;5035413;28;20198;-61
2023/03/19 05:49:38;;;;;;;9.60;8.45;;;9.30;99.90;;;;;;5036073;28;20245;-58
2023/03/19 05:52:06;;;;;;;8.90;7.90;;;9.40;99.90;;;;;;5035996;28;20692;-61
2023/03/19 05:54:34;;;;;;;10.60;8.25;;;9.40;99.90;;;;;;5035923;28;20313;-60
2023/03/19 05:57:02;;;;;;;10.23;9.32;;;9.50;99.90;;;;;;5036129;28;20284;-60
2023/03/19 05:59:28;;;;;;;9.75;8.63;;;9.60;99.90;;;;;;5035596;28;20202;-61
2023/03/19 06:01:55;;;;;;;8.93;7.10;;;9.60;99.90;;;;;;5036295;28;20584;-61
2023/03/19 06:04:22;;;;;;;8.13;7.30;;;9.70;99.90;;;;;;5036744;28;20222;-61
2023/03/19 06:06:49;;;;;;;9.15;7.95;;;9.80;99.90;;;;;;5036025;28;20445;-65
2023/03/19 06:09:16;;;;;;;9.50;8.50;;;9.80;99.90;;;;;;5036775;28;20213;-60
2023/03/19 06:11:44;;;;;;;9.27;8.20;;;9.90;99.90;;;;;;5035705;28;20230;-61
2023/03/19 06:14:10;;;;;;;10.90;8.20;;;10.00;99.90;;;;;;5035372;28;20792;-61
2023/03/19 06:16:37;;;;;;;10.17;7.73;;;10.00;99.90;;;;;;5035627;28;20446;-61
2023/03/19 06:19:04;;;;;;;7.23;6.53;;;10.10;99.90;;;;;;5034928;28;20456;-61
2023/03/19 06:21:31;;;;;;;7.10;6.40;;;10.10;99.90;;;;;;5034883;28;20802;-61
2023/03/19 06:23:58;;;;;;;9.03;7.10;;;10.20;99.90;;;;;;5034997;28;20449;-61
2023/03/19 06:26:25;;;;;;;7.53;6.27;;;10.20;99.90;;;;;;5034578;28;20993;-60
2023/03/19 06:28:54;;;;;;;10.27;7.37;;;10.30;99.90;;;;;;5034480;28;20878;-62
2023/03/19 06:31:21;;;;;;;7.93;7.00;;;10.30;99.90;;;;;;5034804;28;20488;-61
2023/03/19 06:33:49;;;;;;;7.30;6.57;;;10.40;99.90;;;;;;5033950;28;20946;-62
2023/03/19 06:36:16;;;;;;;8.10;6.70;;;10.40;99.90;;;;;;5034997;28;20567;-61
2023/03/19 06:38:43;;;;;;;7.53;6.17;;;10.40;99.90;;;;;;5035023;28;20441;-61
2023/03/19 06:41:09;;;;;;;7.40;6.37;;;10.50;99.90;;;;;;5044276;28;20446;-61
2023/03/19 06:43:36;;;;;;;8.50;6.50;;;10.50;99.90;;;;;;5040997;28;20794;-61
2023/03/19 06:46:05;;;;;;;7.23;6.33;;;10.60;99.90;;;;;;5034287;28;20979;-60
2023/03/19 06:48:32;;;;;;;7.10;5.53;;;10.60;99.90;;;;;;5034204;28;20445;-61
2023/03/19 06:50:59;;;;;;;6.67;6.07;;;10.70;99.90;;;;;;5034374;28;20480;-60
2023/03/19 06:53:26;;;;;;;6.30;5.70;;;10.80;99.90;;;;;;5034466;28;20471;-61
2023/03/19 06:55:53;;;;;;;8.90;6.63;;;10.90;99.90;;;;;;5034286;28;20469;-60
2023/03/19 06:58:20;;;;;;;6.20;5.57;;;11.00;99.90;;;;;;5034374;28;20449;-61
2023/03/19 07:00:47;;;;;;;6.00;5.50;;;11.10;99.90;;;;;;5034480;28;20445;-60
2023/03/19 07:03:15;;;;;;;7.03;5.10;;;11.20;99.90;;;;;;5034753;28;20531;-63
2023/03/19 07:05:42;;;;;;;6.17;5.03;;;11.30;99.90;;;;;;5035753;28;20476;-61
2023/03/19 07:08:10;;;;;;;5.90;5.30;;;11.30;99.90;;;;;;5035145;28;20930;-62
2023/03/19 07:10:37;;;;;;;8.10;5.43;;;11.40;99.90;;;;;;5036879;28;20511;-62
2023/03/19 07:13:04;;;;;;;6.53;4.30;;;11.40;99.90;;;;;;5037923;28;20441;-62
2023/03/19 07:15:31;;;;;;;6.73;5.77;;;11.40;99.90;;;;;;5038919;28;20535;-62
2023/03/19 07:17:58;;;;;;;6.23;4.83;;;11.50;99.90;;;;;;5038270;28;20445;-62
2023/03/19 07:20:26;;;;;;;5.53;5.03;;;11.50;99.90;;;;;;5039046;28;20441;-61
2023/03/19 07:22:53;;;;;;;6.37;5.60;;;11.50;99.90;;;;;;5039803;28;20817;-62
2023/03/19 07:25:20;;;;;;;6.07;4.93;;;11.50;99.90;;;;;;5038754;28;20496;-61
2023/03/19 07:27:47;;;;;;;8.23;5.97;;;11.60;99.90;;;;;;5036529;28;20471;-61
2023/03/19 07:30:14;;;;;;;6.10;4.67;;;11.60;99.90;;;;;;5033943;28;20459;-61
2023/03/19 07:32:41;;;;;;;4.77;4.33;;;11.70;99.90;;;;;;5033363;28;20459;-61
2023/03/19 07:35:09;;;;;;;5.80;4.63;;;11.70;99.90;;;;;;5033260;28;21025;-63
2023/03/19 07:37:37;;;;;;;5.70;4.40;;;11.70;99.90;;;;;;5033642;28;20966;-62
2023/03/19 07:40:04;;;;;;;5.73;5.23;;;11.80;99.90;;;;;;5033460;28;20445;-61
2023/03/19 07:42:31;;;;;;;5.30;4.40;;;11.80;99.90;;;;;;5033093;28;20453;-60
2023/03/19 07:44:58;;;;;;;5.87;4.37;;;11.80;99.90;;;;;;5033136;28;20469;-62
2023/03/19 07:47:25;;;;;;;4.90;4.50;;;11.80;99.90;;;;;;5033772;28;20453;-63
2023/03/19 07:49:51;;;;;;;7.83;4.77;;;11.90;99.90;;;;;;5033196;28;20437;-61
2023/03/19 07:52:18;;;;;;;6.43;4.80;;;11.90;99.90;;;;;;5033791;28;20489;-61
2023/03/19 07:54:46;;;;;;;8.13;4.83;;;12.00;99.90;;;;;;5033600;28;20465;-61
2023/03/19 07:57:15;;;;;;;4.73;4.20;;;12.00;99.90;;;;;;5033828;28;20460;-61
2023/03/19 07:59:42;;;;;;;7.63;4.97;;;12.10;99.90;;;;;;5033652;28;20943;-61
2023/03/19 08:02:10;;;;;;;5.63;4.50;;;12.10;99.90;;;;;;5033313;28;20813;-65
2023/03/19 08:04:37;;;;;;;5.50;4.67;;;12.20;99.90;;;;;;5033392;28;20465;-62
2023/03/19 08:07:04;;;;;;;10.17;4.73;;;12.20;99.90;;;;;;5034734;28;20472;-62
2023/03/19 08:09:31;;;;;;;4.77;4.37;;;12.30;99.90;;;;;;5034962;28;20448;-62
2023/03/19 08:11:59;;;;;;;7.57;5.00;;;12.40;99.90;;;;;;5037041;28;20491;-61
2023/03/19 08:14:26;;;;;;;5.53;4.77;;;12.50;99.90;;;;;;5034328;28;20469;-61
2023/03/19 08:16:52;;;;;;;8.13;4.27;;;12.60;99.90;;;;;;5035174;28;20445;-61
2023/03/19 08:19:19;;;;;;;5.10;4.60;;;12.80;99.90;;;;;;5035201;28;20448;-61
2023/03/19 08:21:46;;;;;;;6.23;4.30;;;12.90;99.90;;;;;;5034845;28;20441;-62
2023/03/19 08:24:13;;;;;;;6.20;4.50;;;13.00;99.90;;;;;;5037883;28;20442;-62
2023/03/19 08:26:39;;;;;;;4.50;4.00;;;13.20;99.90;;;;;;5044711;28;20437;-62
2023/03/19 08:29:07;;;;;;;5.27;4.77;;;13.20;99.90;;;;;;5034764;28;20452;-60
2023/03/19 08:31:34;;;;;;;4.67;3.97;;;13.30;99.90;;;;;;5033539;28;20480;-62
2023/03/19 08:34:02;;;;;;;4.17;3.70;;;13.40;99.90;;;;;;5033550;28;20456;-61
2023/03/19 08:36:29;;;;;;;6.13;4.17;;;13.50;99.90;;;;;;5033161;28;20503;-62
2023/03/19 08:38:57;;;;;;;8.90;3.77;;;13.60;99.90;;;;;;5034965;28;20496;-61
2023/03/19 08:41:24;;;;;;;5.20;3.90;;;13.60;99.90;;;;;;5034413;28;20446;-60
2023/03/19 08:43:51;;;;;;;5.47;3.67;;;13.70;99.90;;;;;;5034546;28;20443;-62
2023/03/19 08:46:20;;;;;;;3.97;3.57;;;13.80;99.90;;;;;;5034868;28;20469;-61
2023/03/19 08:48:46;;;;;;;5.50;3.20;;;13.80;99.90;;;;;;5035799;28;20480;-62
2023/03/19 08:51:13;;;;;;;3.30;3.00;;;13.80;99.90;;;;;;5035651;28;20476;-62
2023/03/19 08:53:40;;;;;;;4.17;3.70;;;13.90;99.90;;;;;;5036079;28;20456;-62
2023/03/19 08:56:07;;;;;;;4.43;3.57;;;13.80;99.90;;;;;;5034808;28;20469;-61
2023/03/19 08:58:35;;;;;;;4.30;3.10;;;13.90;99.90;;;;;;5039074;28;20464;-63
2023/03/19 09:01:03;;;;;;;5.10;3.47;;;13.90;99.90;;;;;;5039644;28;20528;-63
2023/03/19 09:03:31;;;;;;;5.30;3.13;;;13.90;99.90;;;;;;5040207;28;20453;-66
2023/03/19 09:06:00;;;;;;;3.90;3.33;;;13.90;99.90;;;;;;5038651;28;20539;-61
2023/03/19 09:08:27;;;;;;;4.50;3.20;;;14.00;99.90;;;;;;5039311;28;20857;-61
2023/03/19 09:10:53;;;;;;;4.83;3.47;;;14.10;99.90;;;;;;5038342;28;21009;-61
2023/03/19 09:13:20;;;;;;;3.43;2.80;;;14.20;99.90;;;;;;5038500;28;20966;-62
2023/03/19 09:15:48;;;;;;;3.83;3.20;;;14.30;99.90;;;;;;5037859;28;20564;-61
2023/03/19 09:18:15;;;;;;;5.80;2.70;;;14.30;99.90;;;;;;5039039;28;20568;-63
2023/03/19 09:20:43;;;;;;;3.30;2.47;;;14.40;99.90;;;;;;5037896;28;20471;-64
2023/03/19 09:23:10;;;;;;;3.83;2.70;;;14.50;99.90;;;;;;5038236;28;20473;-62
2023/03/19 09:25:37;;;;;;;3.40;2.77;;;14.60;99.90;;;;;;5036446;28;20477;-62
2023/03/19 09:28:03;;;;;;;3.90;2.80;;;14.70;99.90;;;;;;5036334;28;20448;-61
2023/03/19 09:30:30;;;;;;;3.40;3.10;;;14.80;99.90;;;;;;5037595;28;20463;-63
2023/03/19 09:32:57;;;;;;;3.20;2.80;;;15.00;99.90;;;;;;5036865;28;20499;-64
2023/03/19 09:35:29;;;;;;;2.87;2.40;;;15.30;99.90;;;;;;5035794;28;20465;-62
2023/03/19 09:37:57;;;;;;;2.97;2.50;;;15.60;99.90;;;;;;5035804;28;20871;-63
2023/03/19 09:40:28;;;;;;;2.90;2.27;;;16.00;99.90;;;;;;5036075;28;20452;-63
2023/03/19 09:43:05;;;;;;;2.83;1.93;;;16.20;99.90;;;;;;5035692;28;20795;-61
2023/03/19 09:45:32;;;;;;;3.93;2.27;;;16.50;99.40;;;;;;5036066;28;20491;-62
2023/03/19 09:48:04;;;;;;;2.73;2.40;;;16.70;98.20;;;;;;5035165;28;20449;-62
2023/03/19 09:50:35;;;;;;;2.63;2.03;;;16.80;97.40;;;;;;5036152;28;20479;-62
2023/03/19 09:53:12;;;;;;;2.23;1.83;;;16.90;96.40;;;;;;5035957;28;20555;-62
2023/03/19 09:55:43;;;;;;;2.30;1.83;;;16.90;95.40;;;;;;5036545;28;20465;-62
2023/03/19 09:58:15;;;;;;;2.27;1.60;;;16.90;94.50;;;;;;5036015;28;20440;-62
2023/03/19 10:00:44;;;;;;;2.00;1.83;;;16.80;94.30;;;;;;5036230;28;20441;-61
2023/03/19 10:03:30;;;;;;;2.00;1.80;;;17.00;93.90;;;;;;5036539;28;20449;-63
2023/03/19 10:06:08;;;;;;;2.07;1.80;;;17.20;92.50;;;;;;5050907;28;20524;-61
2023/03/19 10:09:02;;;;;;;3.00;1.63;;;17.40;92.00;;;;;;5048200;28;20463;-62
2023/03/19 10:11:51;;;;;;;2.93;1.87;;;17.60;90.90;;;;;;5039802;28;20475;-61
2023/03/19 10:14:40;;;;;;;2.37;2.17;;;17.70;89.50;;;;;;5037178;28;20441;-63
2023/03/19 10:17:12;;;;;;;3.23;2.23;;;17.60;88.60;;;;;;5036243;28;20425;-62
2023/03/19 10:19:44;;;;;;;3.37;1.90;;;17.40;88.20;;;;;;5035556;28;20429;-63
2023/03/19 10:22:16;;;;;;;2.13;1.50;;;17.10;89.30;;;;;;5035931;28;20425;-63
2023/03/19 10:24:46;;;;;;;3.07;2.37;;;17.00;89.40;;;;;;5080022;22;20451;-62
2023/03/19 10:27:15;;;;;;;2.83;1.60;;;17.10;89.80;;;;;;5055343;28;20516;-64
2023/03/19 10:29:42;;;;;;;2.80;2.20;;;17.20;89.40;;;;;;5055098;28;20444;-63
2023/03/19 10:32:18;;;;;;;2.60;2.30;;;17.30;88.20;;;;;;5055025;28;20502;-62
2023/03/19 10:34:47;;;;;;;5.43;1.70;;;17.50;86.60;;;;;;5055058;28;20526;-64
2023/03/19 10:37:16;;;;;;;1.93;1.73;;;17.60;84.80;;;;;;5055677;28;20505;-63
2023/03/19 10:39:45;;;;;;;2.47;2.27;;;17.60;83.80;;;;;;5054931;28;20444;-63
2023/03/19 10:42:40;;;;;;;2.20;1.90;;;17.60;83.80;;;;;;5055367;28;20451;-63
2023/03/19 10:45:19;;;;;;;3.10;2.00;;;17.50;83.30;;;;;;5055006;28;20511;-64
2023/03/19 10:47:46;;;;;;;3.03;2.00;;;17.50;83.10;;;;;;5055005;28;20431;-63
2023/03/19 10:50:17;;;;;;;3.03;1.80;;;17.60;82.20;;;;;;5055119;28;20444;-62
2023/03/19 10:52:45;;;;;;;3.53;1.60;;;17.70;80.00;;;;;;5054472;28;20480;-62
2023/03/19 10:55:16;;;;;;;2.40;1.60;;;17.70;78.40;;;;;;5054391;28;20475;-62
2023/03/19 10:57:44;;;;;;;1.90;1.70;;;17.80;76.90;;;;;;5053851;28;20432;-63
2023/03/19 11:00:18;;;;;;;2.30;1.77;;;17.80;75.20;;;;;;5053785;28;20551;-63
2023/03/19 11:02:50;;;;;;;6.10;1.70;;;17.80;73.90;;;;;;5055216;28;20451;-62
2023/03/19 11:05:25;;;;;;;2.20;1.60;;;17.90;73.60;;;;;;5054825;28;20472;-65
2023/03/19 11:07:57;;;;;;;1.90;1.47;;;18.00;72.60;;;;;;5054063;28;20965;-63
2023/03/19 11:10:28;;;;;;;2.37;1.70;;;18.20;71.60;;;;;;5054292;28;20433;-63
2023/03/19 11:12:57;;;;;;;2.60;2.03;;;18.30;70.60;;;;;;5054970;28;20804;-64
2023/03/19 11:15:28;;;;;;;3.20;2.10;;;18.40;69.70;;;;;;5054749;28;20460;-64
2023/03/19 11:18:00;;;;;;;3.57;1.97;;;18.30;68.70;;;;;;5054169;28;20425;-63
2023/03/19 11:20:32;;;;;;;4.07;1.90;;;18.20;68.40;;;;;;5053850;28;20448;-63
2023/03/19 11:23:02;;;;;;;2.80;1.27;;;18.10;68.10;;;;;;5054345;28;20445;-63
2023/03/19 11:25:34;;;;;;;4.43;1.93;;;18.00;67.70;;;;;;5053882;28;20480;-63
2023/03/19 11:28:03;;;;;;;1.40;1.30;;;17.90;67.60;;;;;;5054067;28;20859;-64
2023/03/19 11:30:37;;;;;;;2.50;2.23;;;17.90;67.70;;;;;;5054099;28;20498;-63
2023/03/19 11:33:31;;;;;;;2.67;1.70;;;18.10;67.50;;;;;;5054231;28;20475;-64
2023/03/19 11:36:05;;;;;;;2.17;1.50;;;18.20;66.40;;;;;;5046881;28;20473;-64
2023/03/19 11:38:40;;;;;;;4.50;2.17;;;18.30;65.70;;;;;;5054448;28;20425;-62
2023/03/19 11:41:17;;;;;;;3.23;1.90;;;18.40;65.30;;;;;;5053495;28;20443;-64
2023/03/19 11:43:55;;;;;;;3.20;1.97;;;18.50;64.80;;;;;;5054092;28;20438;-63
2023/03/19 11:46:37;;;;;;;2.30;1.73;;;18.40;64.10;;;;;;5053557;28;20997;-64
2023/03/19 11:49:26;;;;;;;7.57;3.83;;;18.30;64.00;;;;;;5053734;28;20429;-64
2023/03/19 11:52:01;;;;;;;2.30;2.10;;;18.30;63.70;;;;;;5054260;28;20460;-64
2023/03/19 11:54:34;;;;;;;4.10;2.67;;;18.30;64.40;;;;;;5054047;28;20456;-64
2023/03/19 11:57:08;;;;;;;1.87;1.50;;;18.50;63.30;;;;;;5054157;28;20441;-65
2023/03/19 11:59:58;;;;;;;3.20;2.00;;;18.60;62.80;;;;;;5053833;28;20429;-63
2023/03/19 12:02:40;;;;;;;3.57;1.70;;;18.80;62.60;;;;;;5054825;28;20490;-63
2023/03/19 12:05:20;;;;;;;2.10;1.90;;;19.00;62.10;;;;;;5055094;28;20470;-64
2023/03/19 12:07:58;;;;;;;3.53;2.30;;;19.10;61.20;;;;;;5055064;28;20428;-63
2023/03/19 12:10:37;;;;;;;3.50;2.23;;;19.10;60.50;;;;;;5053334;28;20428;-63
2023/03/19 12:13:17;;;;;;;2.93;2.17;;;19.20;60.40;;;;;;5053221;28;20575;-63
2023/03/19 12:15:55;;;;;;;3.73;1.83;;;19.30;60.00;;;;;;5054469;28;20896;-62
2023/03/19 12:18:35;;;;;;;3.53;1.87;;;19.30;59.80;;;;;;5053569;28;20432;-63
2023/03/19 12:21:12;;;;;;;1.73;1.60;;;19.30;59.80;;;;;;5053376;28;20428;-63
2023/03/19 12:23:54;;;;;;;2.70;1.83;;;19.30;59.80;;;;;;5053090;28;20436;-63
2023/03/19 12:26:29;;;;;;;2.13;1.93;;;19.30;59.80;;;;;;5052884;28;20478;-62
2023/03/19 12:29:05;;;;;;;1.97;1.23;;;19.30;59.40;;;;;;5053822;28;20435;-64
2023/03/19 12:31:46;;;;;;;2.30;1.43;;;19.30;59.20;;;;;;5053907;28;20428;-63
2023/03/19 12:34:22;;;;;;;3.43;1.77;;;19.10;58.60;;;;;;5057816;28;20451;-61
2023/03/19 12:36:54;;;;;;;4.37;1.53;;;19.00;58.60;;;;;;5056964;28;21005;-64
2023/03/19 12:39:26;;;;;;;1.80;1.40;;;19.10;58.80;;;;;;5057477;28;20808;-63
2023/03/19 12:41:55;;;;;;;2.50;1.70;;;19.10;58.20;;;;;;5056693;28;20430;-63
2023/03/19 12:44:28;;;;;;;3.63;1.70;;;19.10;58.20;;;;;;5057561;28;20444;-64
2023/03/19 12:46:58;;;;;;;1.73;1.63;;;19.00;58.20;;;;;;5060053;28;20437;-62
2023/03/19 12:49:30;;;;;;;3.30;1.60;;;19.00;58.40;;;;;;5057767;28;20428;-64
2023/03/19 12:52:02;;;;;;;4.60;1.70;;;19.10;58.40;;;;;;5057488;28;20436;-64
2023/03/19 12:54:35;;;;;;;2.00;1.60;;;19.20;58.40;;;;;;5057185;28;20464;-65
2023/03/19 12:57:08;;;;;;;1.90;1.50;;;19.10;58.30;;;;;;5057024;28;20424;-64
2023/03/19 12:59:40;;;;;;;1.70;1.40;;;19.00;58.50;;;;;;5057021;28;20502;-64